Time,TemperatureF,DewpointF,PressureIn,WindDirection,WindDirectionDegrees,WindSpeedMPH,WindSpeedGustMPH,Humidity,HourlyPrecipIn,Conditions,Clouds,dailyrainin,SoftwareType,DateUTC
2013-10-20 20:31:00,58.8,35.8,29.85,WSW,252,2.2,2.2,42,0.00,,---,0.00,VWS V14.01,2013-10-21 03:31:00,
2013-10-20 20:32:00,58.8,35.8,29.85,WSW,254,6.3,6.3,42,0.00,,---,0.00,VWS V14.01,2013-10-21 03:32:00,
2013-10-20 20:37:00,59.0,36.0,29.85,NW,322,0.0,0.0,42,0.00,,---,0.00,VWS V14.01,2013-10-21 03:37:00,
2013-10-20 20:42:00,60.1,36.9,29.85,West,266,3.1,3.1,42,0.00,,---,0.00,VWS V14.01,2013-10-21 03:42:00,
2013-10-20 20:47:00,60.6,37.4,29.85,SW,235,0.0,0.0,42,0.00,,---,0.00,VWS V14.01,2013-10-21 03:47:00,
2013-10-20 20:52:00,60.6,37.4,29.85,SW,235,0.0,0.0,42,0.00,,---,0.00,VWS V14.01,2013-10-21 03:52:00,
2013-10-20 20:57:00,60.1,36.9,29.85,SW,236,0.0,0.0,42,0.00,,---,0.00,VWS V14.01,2013-10-21 03:57:00,
2013-10-20 21:01:00,59.9,36.8,29.85,SW,227,0.0,0.0,42,0.00,,---,0.00,VWS V14.01,2013-10-21 04:01:00,
2013-10-20 21:02:00,59.9,36.8,29.85,SW,227,0.0,0.0,42,0.00,,---,0.00,VWS V14.01,2013-10-21 04:02:00,
2013-10-20 21:03:00,59.9,36.8,29.85,SW,226,0.0,0.0,42,0.00,,---,0.00,VWS V14.01,2013-10-21 04:03:00,
2013-10-20 21:04:00,59.9,36.8,29.85,SW,226,0.0,0.0,42,0.00,,---,0.00,VWS V14.01,2013-10-21 04:04:00,
2013-10-20 21:06:00,59.9,36.8,29.85,SW,226,0.0,0.0,42,0.00,,---,0.00,VWS V14.01,2013-10-21 04:06:00,
2013-10-20 21:11:00,59.9,36.8,29.85,SW,235,0.0,0.0,42,0.00,,---,0.00,VWS V14.01,2013-10-21 04:11:00,
2013-10-20 21:16:00,60.1,36.9,29.85,SW,234,0.0,0.0,42,0.00,,---,0.00,VWS V14.01,2013-10-21 04:16:00,
2013-10-20 21:21:00,59.9,36.8,29.85,SW,220,0.0,0.0,42,0.00,,---,0.00,VWS V14.01,2013-10-21 04:21:00,
2013-10-20 21:26:00,60.4,37.3,29.85,SW,222,0.0,0.0,42,0.00,,---,0.00,VWS V14.01,2013-10-21 04:26:00,
2013-10-20 21:31:00,60.4,37.3,29.85,SW,226,0.0,0.0,42,0.00,,---,0.00,VWS V14.01,2013-10-21 04:31:00,
2013-10-20 21:36:00,60.3,37.1,29.85,SW,220,6.3,6.3,42,0.00,,---,0.00,VWS V14.01,2013-10-21 04:36:00,
2013-10-20 21:41:00,60.1,36.9,29.85,SW,216,0.0,4.9,42,0.00,,---,0.00,VWS V14.01,2013-10-21 04:41:00,
2013-10-20 21:46:00,59.7,36.6,29.85,SW,218,0.0,0.0,42,0.00,,---,0.00,VWS V14.01,2013-10-21 04:46:00,
2013-10-20 21:51:00,59.5,36.5,29.85,SW,220,0.0,0.0,42,0.00,,---,0.00,VWS V14.01,2013-10-21 04:51:00,
2013-10-20 21:56:00,59.0,36.0,29.85,SW,219,0.0,0.0,42,0.00,,---,0.00,VWS V14.01,2013-10-21 04:56:00,
2013-10-20 22:02:00,58.3,35.3,29.85,SW,219,0.0,0.0,42,0.00,,---,0.00,VWS V14.01,2013-10-21 05:02:00,
2013-10-20 22:07:00,57.6,34.7,29.85,SW,219,0.0,0.0,42,0.00,,---,0.00,VWS V14.01,2013-10-21 05:07:00,
2013-10-20 22:12:00,56.7,33.8,29.88,SW,220,0.0,0.0,42,0.00,,---,0.00,VWS V14.01,2013-10-21 05:12:00,
2013-10-20 22:17:00,56.3,33.5,29.88,SW,220,0.0,0.0,42,0.00,,---,0.00,VWS V14.01,2013-10-21 05:17:00,
2013-10-20 22:22:00,56.1,33.4,29.88,SW,220,0.0,0.0,42,0.00,,---,0.00,VWS V14.01,2013-10-21 05:22:00,
2013-10-20 22:27:00,56.5,33.7,29.88,SW,220,0.0,0.0,42,0.00,,---,0.00,VWS V14.01,2013-10-21 05:27:00,
2013-10-20 22:32:00,56.7,33.8,29.88,SW,219,0.0,0.0,42,0.00,,---,0.00,VWS V14.01,2013-10-21 05:32:00,
2013-10-20 22:37:00,58.3,35.3,29.88,SW,222,0.0,0.0,42,0.00,,---,0.00,VWS V14.01,2013-10-21 05:37:00,
2013-10-20 22:42:00,59.2,36.1,29.88,SW,220,0.0,0.0,42,0.00,,---,0.00,VWS V14.01,2013-10-21 05:42:00,
2013-10-20 22:47:00,59.2,36.1,29.88,SW,220,0.0,0.0,42,0.00,,---,0.00,VWS V14.01,2013-10-21 05:47:00,
2013-10-20 22:52:00,58.8,35.8,29.88,SW,220,0.0,0.0,42,0.00,,---,0.00,VWS V14.01,2013-10-21 05:52:00,
2013-10-20 22:57:00,57.7,34.8,29.88,SW,220,0.0,0.0,42,0.00,,---,0.00,VWS V14.01,2013-10-21 05:57:00,
2013-10-20 23:02:00,56.8,34.0,29.88,SW,220,0.0,0.0,42,0.00,,---,0.00,VWS V14.01,2013-10-21 06:02:00,
2013-10-20 23:07:00,55.9,33.2,29.88,SW,220,0.0,0.0,42,0.00,,---,0.00,VWS V14.01,2013-10-21 06:07:00,
2013-10-20 23:12:00,55.0,33.0,29.88,SW,220,0.0,0.0,43,0.00,,---,0.00,VWS V14.01,2013-10-21 06:12:00,
2013-10-20 23:17:00,54.5,32.5,29.88,SW,220,0.0,0.0,43,0.00,,---,0.00,VWS V14.01,2013-10-21 06:17:00,
2013-10-20 23:22:00,53.6,31.7,29.88,SW,220,0.0,0.0,43,0.00,,---,0.00,VWS V14.01,2013-10-21 06:22:00,
2013-10-20 23:27:00,52.9,31.0,29.88,SW,220,0.0,0.0,43,0.00,,---,0.00,VWS V14.01,2013-10-21 06:27:00,
2013-10-20 23:32:00,52.3,30.5,29.88,SW,220,0.0,0.0,43,0.00,,---,0.00,VWS V14.01,2013-10-21 06:32:00,
2013-10-20 23:37:00,52.3,30.5,29.88,SW,220,0.0,0.0,43,0.00,,---,0.00,VWS V14.01,2013-10-21 06:37:00,
2013-10-20 23:43:00,52.5,30.7,29.88,SW,220,0.0,0.0,43,0.00,,---,0.00,VWS V14.01,2013-10-21 06:43:00,
2013-10-20 23:48:00,53.1,31.2,29.88,SW,220,0.0,0.0,43,0.00,,---,0.00,VWS V14.01,2013-10-21 06:48:00,
2013-10-20 23:53:00,52.7,30.9,29.88,SW,220,0.0,0.0,43,0.00,,---,0.00,VWS V14.01,2013-10-21 06:53:00,
2013-10-20 23:58:00,52.3,30.5,29.88,SW,220,0.0,0.0,43,0.00,,---,0.00,VWS V14.01,2013-10-21 06:58:00,